Time;durP1;ratioP1;P1;durP2;ratioP2;P2;SDS_P1;SDS_P2;PMS_P1;PMS_P2;Temp;Humidity;BMP_temperature;BMP_pressure;BME280_temperature;BME280_humidity;BME280_pressure;Samples;Min_cycle;Max_cycle;Signal;HPM_P1;HPM_P2
2021/12/28 00:00:26;;;;;;;11.13;6.20;;;10.00;99.90;;;;;;5008115;28;20200;-70
2021/12/28 00:02:55;;;;;;;10.17;5.93;;;10.00;99.90;;;;;;5021784;28;20223;-70
2021/12/28 00:05:24;;;;;;;10.00;5.93;;;10.10;99.90;;;;;;5021077;28;20268;-71
2021/12/28 00:07:51;;;;;;;7.80;5.50;;;10.10;99.90;;;;;;5016894;28;20869;-71
2021/12/28 00:10:19;;;;;;;8.07;5.73;;;10.10;99.90;;;;;;5013810;28;20193;-70
2021/12/28 00:12:47;;;;;;;9.27;6.00;;;10.10;99.90;;;;;;5012725;28;20208;-71
2021/12/28 00:18:02;;;;;;;11.30;6.57;;;10.10;99.90;;;;;;5026127;28;20713;-71
2021/12/28 00:20:36;;;;;;;10.27;6.57;;;10.10;99.90;;;;;;5008509;28;20199;-70
2021/12/28 00:23:21;;;;;;;8.83;6.53;;;10.10;99.90;;;;;;5017652;28;20769;-71
2021/12/28 00:25:51;;;;;;;8.40;6.60;;;10.10;99.90;;;;;;5020535;28;20200;-70
2021/12/28 00:28:19;;;;;;;12.33;6.60;;;10.10;99.90;;;;;;5024541;28;20279;-70
2021/12/28 00:30:47;;;;;;;10.63;6.60;;;10.10;99.90;;;;;;5015232;28;20712;-70
2021/12/28 00:33:16;;;;;;;10.53;5.90;;;10.10;99.90;;;;;;5026002;28;20200;-70
2021/12/28 00:35:43;;;;;;;8.47;5.47;;;10.00;99.90;;;;;;5021049;28;20192;-70
2021/12/28 00:38:15;;;;;;;8.13;5.57;;;10.10;99.90;;;;;;5026503;28;20195;-70
2021/12/28 00:40:42;;;;;;;12.73;5.20;;;10.10;99.90;;;;;;5017723;28;20213;-70
2021/12/28 00:43:08;;;;;;;8.83;5.27;;;10.10;99.90;;;;;;5020252;28;20223;-71
2021/12/28 00:45:34;;;;;;;8.67;4.87;;;10.10;99.90;;;;;;5004746;28;20239;-71
2021/12/28 00:48:01;;;;;;;10.53;5.20;;;10.10;99.90;;;;;;5025626;28;20660;-71
2021/12/28 00:50:28;;;;;;;7.63;5.50;;;10.10;99.90;;;;;;5026264;28;20708;-71
2021/12/28 00:52:57;;;;;;;6.83;4.63;;;10.10;99.90;;;;;;5025832;28;20283;-71
2021/12/28 00:55:24;;;;;;;6.77;4.60;;;10.10;99.90;;;;;;5015826;28;20290;-70
2021/12/28 00:57:52;;;;;;;6.37;4.40;;;10.00;99.90;;;;;;5006453;28;20675;-71
2021/12/28 01:00:29;;;;;;;8.73;5.07;;;10.00;99.90;;;;;;5019629;28;20215;-71
2021/12/28 01:02:58;;;;;;;8.20;4.73;;;10.00;99.90;;;;;;5021266;28;20599;-70
2021/12/28 01:05:28;;;;;;;7.60;4.40;;;10.00;99.90;;;;;;5008008;28;20285;-71
2021/12/28 01:07:55;;;;;;;8.13;4.60;;;10.00;99.90;;;;;;5018564;28;20203;-70
2021/12/28 01:10:28;;;;;;;6.93;4.20;;;10.10;99.90;;;;;;5021419;28;20196;-70
2021/12/28 01:12:55;;;;;;;8.40;4.20;;;10.10;99.90;;;;;;5015601;28;20639;-70
2021/12/28 01:15:25;;;;;;;5.73;4.20;;;10.00;99.90;;;;;;5018191;28;20199;-70
2021/12/28 01:17:51;;;;;;;6.80;4.30;;;9.90;99.90;;;;;;5013257;28;20207;-71
2021/12/28 01:20:18;;;;;;;5.60;3.90;;;9.90;99.90;;;;;;5024234;28;20207;-70
2021/12/28 01:22:46;;;;;;;6.73;3.63;;;9.90;99.90;;;;;;5016520;28;20224;-71
2021/12/28 01:25:16;;;;;;;6.53;3.77;;;9.90;99.90;;;;;;5041221;28;20203;-71
2021/12/28 01:27:43;;;;;;;6.03;3.87;;;9.80;99.90;;;;;;5015569;28;20200;-71
2021/12/28 01:30:12;;;;;;;6.20;3.50;;;9.80;99.90;;;;;;5013820;28;20300;-71
2021/12/28 01:32:39;;;;;;;5.70;3.47;;;9.70;99.90;;;;;;5017556;28;20196;-71
2021/12/28 01:35:10;;;;;;;5.13;3.60;;;9.70;99.90;;;;;;5024095;28;20200;-71
2021/12/28 01:37:37;;;;;;;4.67;3.50;;;9.60;99.90;;;;;;5016234;28;20193;-71
2021/12/28 01:40:07;;;;;;;4.97;3.47;;;9.60;99.90;;;;;;5020458;28;20713;-71
2021/12/28 01:42:52;;;;;;;4.30;3.07;;;9.70;99.90;;;;;;5019390;28;20242;-71
2021/12/28 01:45:18;;;;;;;4.33;3.20;;;9.70;99.90;;;;;;5022948;28;20192;-71
2021/12/28 01:47:45;;;;;;;6.93;3.73;;;9.70;99.90;;;;;;5018603;28;20211;-71
2021/12/28 01:50:11;;;;;;;4.90;3.30;;;9.70;99.90;;;;;;5021494;28;20230;-70
2021/12/28 01:52:38;;;;;;;6.63;3.20;;;9.60;99.90;;;;;;5012591;28;20865;-71
2021/12/28 01:55:06;;;;;;;3.87;2.90;;;9.60;99.90;;;;;;5019796;28;20271;-71
2021/12/28 01:57:32;;;;;;;5.50;2.50;;;9.60;99.90;;;;;;5023760;28;20688;-71
2021/12/28 01:59:58;;;;;;;4.40;2.50;;;9.60;99.90;;;;;;5021434;28;20204;-70
2021/12/28 02:02:24;;;;;;;2.87;2.27;;;9.60;99.90;;;;;;5014903;28;20569;-71
2021/12/28 02:04:51;;;;;;;2.40;2.00;;;9.60;99.90;;;;;;5016739;28;20291;-71
2021/12/28 02:07:17;;;;;;;2.87;2.17;;;9.60;99.90;;;;;;5015092;28;20206;-71
2021/12/28 02:09:43;;;;;;;3.43;2.00;;;9.50;99.90;;;;;;5021735;28;20199;-70
2021/12/28 02:12:10;;;;;;;3.73;2.33;;;9.50;99.90;;;;;;5007472;28;20251;-71
2021/12/28 02:14:43;;;;;;;4.87;2.07;;;9.50;99.90;;;;;;5021538;28;20234;-71
2021/12/28 02:17:10;;;;;;;3.50;1.93;;;9.40;99.90;;;;;;5022335;28;20192;-71
2021/12/28 02:19:36;;;;;;;2.13;1.60;;;9.40;99.90;;;;;;5024568;28;20211;-71
2021/12/28 02:22:03;;;;;;;2.07;1.83;;;9.40;99.90;;;;;;5010149;28;20212;-71
2021/12/28 02:24:29;;;;;;;2.60;1.77;;;9.40;99.90;;;;;;4989543;28;20196;-72
2021/12/28 02:26:58;;;;;;;2.83;1.90;;;9.40;99.90;;;;;;5008135;28;20286;-72
2021/12/28 02:29:25;;;;;;;2.77;2.10;;;9.30;99.90;;;;;;5023921;28;20184;-72
2021/12/28 02:31:55;;;;;;;4.67;2.13;;;9.30;99.90;;;;;;5025816;28;20214;-72
2021/12/28 02:34:26;;;;;;;3.13;2.00;;;9.20;99.90;;;;;;4998018;28;20199;-72
2021/12/28 02:36:52;;;;;;;3.47;2.40;;;9.20;99.90;;;;;;5022083;28;20293;-72
2021/12/28 02:39:19;;;;;;;2.77;1.97;;;9.20;99.90;;;;;;5014514;28;20196;-72
2021/12/28 02:41:45;;;;;;;5.60;2.10;;;9.20;99.90;;;;;;5019736;28;20258;-72
2021/12/28 02:44:12;;;;;;;4.67;2.27;;;9.20;99.90;;;;;;5019233;28;20316;-72
2021/12/28 02:46:38;;;;;;;3.33;2.33;;;9.20;99.90;;;;;;5005692;28;20184;-72
2021/12/28 02:49:04;;;;;;;3.97;2.70;;;9.20;99.90;;;;;;5023455;28;20393;-71
2021/12/28 02:51:31;;;;;;;5.30;3.08;;;9.20;99.90;;;;;;5024908;28;20444;-68
2021/12/28 02:53:57;;;;;;;5.27;2.67;;;9.20;99.90;;;;;;5031573;28;20241;-68
2021/12/28 02:56:23;;;;;;;4.47;2.90;;;9.20;99.90;;;;;;5005982;28;20399;-68
2021/12/28 02:58:52;;;;;;;5.33;3.33;;;9.20;99.90;;;;;;5020227;28;20529;-67
2021/12/28 03:01:23;;;;;;;4.20;3.03;;;9.20;99.90;;;;;;5022196;28;20652;-67
2021/12/28 03:04:03;;;;;;;5.87;3.73;;;9.20;99.90;;;;;;5019699;28;20949;-68
2021/12/28 03:06:31;;;;;;;7.07;4.07;;;9.20;99.90;;;;;;5013423;28;20187;-67
2021/12/28 03:08:59;;;;;;;5.53;4.23;;;9.20;99.90;;;;;;5032751;28;20615;-67
2021/12/28 03:11:29;;;;;;;11.47;5.43;;;9.20;99.90;;;;;;5040568;28;20191;-68
2021/12/28 03:14:00;;;;;;;9.10;5.73;;;9.20;99.90;;;;;;5038257;28;20196;-67
2021/12/28 03:16:30;;;;;;;9.97;6.60;;;9.20;99.90;;;;;;5043449;28;20176;-67
2021/12/28 03:18:57;;;;;;;9.90;6.80;;;9.20;99.90;;;;;;5026737;28;20696;-67
2021/12/28 03:21:25;;;;;;;14.60;8.17;;;9.20;99.90;;;;;;5008410;28;20659;-67
2021/12/28 03:23:53;;;;;;;12.40;8.10;;;9.20;99.90;;;;;;5020177;28;20187;-68
2021/12/28 03:26:19;;;;;;;12.27;8.10;;;9.30;99.90;;;;;;5021370;28;20192;-68
2021/12/28 03:28:46;;;;;;;16.40;9.60;;;9.30;99.90;;;;;;4997840;28;20706;-67
2021/12/28 03:31:16;;;;;;;14.80;7.93;;;9.40;99.90;;;;;;5025981;28;20636;-68
2021/12/28 03:33:46;;;;;;;12.97;8.43;;;9.40;99.90;;;;;;5024811;28;20690;-68
2021/12/28 03:36:16;;;;;;;11.87;7.70;;;9.30;99.90;;;;;;5016674;28;20191;-69
2021/12/28 03:38:44;;;;;;;10.07;7.20;;;9.30;99.90;;;;;;5035170;28;20210;-67
2021/12/28 03:41:13;;;;;;;13.97;7.83;;;9.30;99.90;;;;;;5029568;28;20909;-68
2021/12/28 03:43:44;;;;;;;13.37;8.17;;;9.30;99.90;;;;;;5024166;28;20208;-67
2021/12/28 03:46:11;;;;;;;13.87;7.90;;;9.40;99.90;;;;;;5020986;28;20181;-67
2021/12/28 03:48:40;;;;;;;11.57;7.30;;;9.40;99.90;;;;;;5001335;28;20211;-68
2021/12/28 03:51:08;;;;;;;12.00;6.77;;;9.40;99.90;;;;;;5025625;28;20184;-68
2021/12/28 03:53:34;;;;;;;9.80;6.63;;;9.40;99.90;;;;;;5018428;28;20189;-68
2021/12/28 03:56:02;;;;;;;10.37;5.30;;;9.40;99.90;;;;;;5021308;28;20215;-68
2021/12/28 03:58:30;;;;;;;9.77;5.67;;;9.30;99.90;;;;;;5015820;28;20184;-70
2021/12/28 04:00:56;;;;;;;9.03;5.30;;;9.30;99.90;;;;;;5022053;28;20488;-69
2021/12/28 04:03:23;;;;;;;7.30;4.93;;;9.30;99.90;;;;;;4998523;28;20216;-69
2021/12/28 04:05:51;;;;;;;7.43;4.80;;;9.30;99.90;;;;;;5005146;28;20189;-68
2021/12/28 04:08:21;;;;;;;6.37;4.40;;;9.30;99.90;;;;;;5024186;28;20621;-68
2021/12/28 04:11:01;;;;;;;9.37;4.63;;;9.20;99.90;;;;;;5026841;28;20665;-68
2021/12/28 04:13:27;;;;;;;5.53;4.33;;;9.20;99.90;;;;;;5024841;28;20215;-67
2021/12/28 04:15:53;;;;;;;8.10;4.00;;;9.20;99.90;;;;;;5025825;28;20222;-67
2021/12/28 04:18:20;;;;;;;5.03;3.90;;;9.30;99.90;;;;;;5021340;28;20946;-68
2021/12/28 04:20:47;;;;;;;9.77;5.70;;;9.30;99.90;;;;;;5026374;28;20212;-67
2021/12/28 04:23:14;;;;;;;11.20;6.40;;;9.30;99.90;;;;;;5024410;28;20206;-68
2021/12/28 04:25:41;;;;;;;9.27;5.73;;;9.30;99.90;;;;;;5008008;28;20652;-68
2021/12/28 04:28:07;;;;;;;7.63;5.60;;;9.30;99.90;;;;;;5026730;28;20310;-68
2021/12/28 04:30:34;;;;;;;14.43;6.57;;;9.40;99.90;;;;;;5010364;28;20189;-68
2021/12/28 04:33:00;;;;;;;9.93;6.30;;;9.30;99.90;;;;;;5015366;28;20266;-68
2021/12/28 04:35:26;;;;;;;8.50;5.87;;;9.40;99.90;;;;;;5023017;28;20617;-68
2021/12/28 04:37:52;;;;;;;9.77;6.17;;;9.40;99.90;;;;;;5012531;28;20989;-68
2021/12/28 04:40:19;;;;;;;12.70;6.10;;;9.40;99.90;;;;;;5051576;28;20196;-68
2021/12/28 04:42:45;;;;;;;9.00;5.50;;;9.40;99.90;;;;;;5022458;28;20999;-69
2021/12/28 04:45:14;;;;;;;7.23;4.80;;;9.50;99.90;;;;;;5025262;28;20216;-69
2021/12/28 04:47:41;;;;;;;7.13;4.57;;;9.50;99.90;;;;;;5019864;28;20227;-69
2021/12/28 04:50:12;;;;;;;5.37;3.70;;;9.50;99.90;;;;;;5025840;28;20191;-69
2021/12/28 04:52:40;;;;;;;5.27;3.20;;;9.50;99.90;;;;;;5007669;28;20191;-69
2021/12/28 04:55:14;;;;;;;6.30;3.93;;;9.50;99.90;;;;;;5008348;28;20296;-69
2021/12/28 04:57:42;;;;;;;5.97;4.13;;;9.50;99.90;;;;;;5015188;28;20283;-69
2021/12/28 05:00:17;;;;;;;5.77;4.03;;;9.40;99.90;;;;;;5010329;28;21004;-70
2021/12/28 05:02:44;;;;;;;5.93;3.70;;;9.40;99.90;;;;;;5024132;28;20216;-70
2021/12/28 05:05:12;;;;;;;5.37;4.07;;;9.40;99.90;;;;;;5043324;28;20188;-70
2021/12/28 05:07:40;;;;;;;7.03;3.57;;;9.40;99.90;;;;;;5021311;28;20280;-70
2021/12/28 05:10:08;;;;;;;8.10;3.57;;;9.40;99.90;;;;;;5034283;28;20254;-69
2021/12/28 05:12:34;;;;;;;3.83;3.40;;;9.30;99.90;;;;;;5032614;28;20493;-70
2021/12/28 05:15:00;;;;;;;7.17;3.67;;;9.30;99.90;;;;;;5037652;28;20203;-70
2021/12/28 05:17:31;;;;;;;7.10;3.30;;;9.30;99.90;;;;;;5000656;28;20184;-68
2021/12/28 05:19:57;;;;;;;7.57;3.13;;;9.30;99.90;;;;;;5024885;28;20764;-67
2021/12/28 05:22:23;;;;;;;4.63;3.23;;;9.30;99.90;;;;;;5021784;28;20956;-67
2021/12/28 05:24:50;;;;;;;4.67;3.07;;;9.30;99.90;;;;;;5019193;28;20216;-67
2021/12/28 05:27:17;;;;;;;4.17;3.13;;;9.30;99.90;;;;;;4999304;28;20196;-67
2021/12/28 05:29:44;;;;;;;3.70;2.73;;;9.40;99.90;;;;;;5012340;28;20184;-66
2021/12/28 05:32:10;;;;;;;4.47;3.03;;;9.40;99.90;;;;;;5022485;28;20179;-70
2021/12/28 05:34:37;;;;;;;4.13;2.87;;;9.40;99.90;;;;;;5024597;28;20195;-70
2021/12/28 05:37:04;;;;;;;6.87;2.67;;;9.40;99.90;;;;;;5001545;28;20326;-70
2021/12/28 05:39:30;;;;;;;5.77;3.83;;;9.40;99.90;;;;;;5006775;28;20205;-71
2021/12/28 05:41:57;;;;;;;6.67;4.00;;;9.40;99.90;;;;;;5036105;28;20207;-70
2021/12/28 05:44:24;;;;;;;8.67;4.20;;;9.40;99.90;;;;;;5021680;28;20183;-69
2021/12/28 05:46:51;;;;;;;8.20;4.73;;;9.40;99.90;;;;;;5024831;28;20675;-70
2021/12/28 05:49:18;;;;;;;3.10;2.37;;;9.50;99.90;;;;;;5034074;28;20264;-71
2021/12/28 05:51:44;;;;;;;3.80;2.40;;;9.50;99.90;;;;;;5022242;28;20184;-71
2021/12/28 05:54:11;;;;;;;3.53;2.30;;;9.50;99.90;;;;;;5007997;28;20181;-71
2021/12/28 05:56:38;;;;;;;3.17;2.20;;;9.60;99.90;;;;;;4994054;28;20715;-71
2021/12/28 05:59:05;;;;;;;2.67;2.33;;;9.60;99.90;;;;;;5036941;28;20271;-71
2021/12/28 06:01:31;;;;;;;2.83;2.00;;;9.60;99.90;;;;;;5017957;28;20216;-71
2021/12/28 06:03:57;;;;;;;4.47;2.13;;;9.60;99.90;;;;;;5020344;28;20220;-71
2021/12/28 06:06:24;;;;;;;2.93;2.10;;;9.70;99.90;;;;;;5020002;28;20220;-71
2021/12/28 06:08:51;;;;;;;3.27;2.57;;;9.70;99.90;;;;;;5025360;28;20188;-71
2021/12/28 06:11:17;;;;;;;2.93;2.27;;;9.70;99.90;;;;;;5026781;28;20239;-71
2021/12/28 06:13:44;;;;;;;3.10;2.10;;;9.80;99.90;;;;;;5025409;28;20730;-71
2021/12/28 06:16:12;;;;;;;4.07;2.03;;;9.80;99.90;;;;;;5032017;28;20195;-71
2021/12/28 06:18:38;;;;;;;6.33;2.03;;;9.90;99.90;;;;;;5020430;28;20299;-71
2021/12/28 06:21:05;;;;;;;4.87;2.10;;;9.90;99.90;;;;;;5005292;28;20264;-71
2021/12/28 06:23:32;;;;;;;2.33;2.07;;;10.00;99.90;;;;;;5025386;28;20204;-69
2021/12/28 06:25:58;;;;;;;3.33;2.30;;;10.00;99.90;;;;;;5018379;28;20246;-69
2021/12/28 06:28:25;;;;;;;2.90;2.00;;;10.00;99.90;;;;;;5023967;28;20180;-73
2021/12/28 06:30:53;;;;;;;2.90;2.30;;;10.10;99.90;;;;;;5025231;28;20180;-73
2021/12/28 06:33:21;;;;;;;2.67;2.10;;;10.10;99.90;;;;;;5012498;28;20222;-73
2021/12/28 06:35:49;;;;;;;2.30;1.90;;;10.10;99.90;;;;;;4995741;28;20231;-73
2021/12/28 06:38:18;;;;;;;3.17;1.97;;;10.20;99.90;;;;;;5014268;28;20601;-73
2021/12/28 06:40:45;;;;;;;4.93;2.27;;;10.20;99.90;;;;;;5018102;28;20202;-73
2021/12/28 06:43:12;;;;;;;5.60;2.43;;;10.20;99.90;;;;;;5013471;28;20251;-73
2021/12/28 06:45:39;;;;;;;3.87;2.33;;;10.30;99.90;;;;;;5035643;28;20191;-73
2021/12/28 06:48:06;;;;;;;7.10;2.63;;;10.30;99.90;;;;;;5033730;28;20281;-73
2021/12/28 06:50:32;;;;;;;4.23;2.50;;;10.40;99.90;;;;;;5019223;28;20282;-73
2021/12/28 06:52:58;;;;;;;4.63;2.90;;;10.40;99.90;;;;;;5028503;28;20595;-73
2021/12/28 06:55:25;;;;;;;4.37;2.67;;;10.40;99.90;;;;;;5025443;28;20302;-72
2021/12/28 06:57:51;;;;;;;6.07;2.60;;;10.50;99.90;;;;;;5006758;28;20509;-70
2021/12/28 07:00:19;;;;;;;3.60;2.80;;;10.50;99.90;;;;;;5001372;28;20211;-71
2021/12/28 07:02:46;;;;;;;5.17;2.50;;;10.50;99.90;;;;;;5010307;28;20223;-70
2021/12/28 07:05:13;;;;;;;4.50;2.70;;;10.60;99.90;;;;;;5008355;28;20192;-70
2021/12/28 07:07:40;;;;;;;5.77;2.47;;;10.60;99.90;;;;;;5025363;28;20180;-70
2021/12/28 07:10:08;;;;;;;4.17;2.13;;;10.70;99.90;;;;;;5007280;28;20895;-70
2021/12/28 07:12:35;;;;;;;4.43;2.47;;;10.70;99.90;;;;;;5021393;28;20187;-70
2021/12/28 07:15:03;;;;;;;3.60;2.50;;;10.70;99.90;;;;;;5033747;28;20176;-70
2021/12/28 07:17:29;;;;;;;4.37;2.40;;;10.80;99.90;;;;;;5038469;28;20657;-70
2021/12/28 07:19:56;;;;;;;4.17;2.57;;;10.80;99.90;;;;;;5008360;28;20207;-70
2021/12/28 07:22:22;;;;;;;3.37;2.53;;;10.80;99.90;;;;;;5000476;28;20205;-70
2021/12/28 07:24:48;;;;;;;3.30;2.43;;;10.90;99.90;;;;;;5007214;28;20647;-69
2021/12/28 07:27:15;;;;;;;3.63;2.10;;;10.90;99.90;;;;;;5010904;28;20669;-70
2021/12/28 07:29:41;;;;;;;5.13;2.47;;;11.00;99.90;;;;;;4992854;28;20184;-70
2021/12/28 07:32:08;;;;;;;3.80;2.40;;;11.00;99.90;;;;;;5046533;28;20180;-70
2021/12/28 07:34:35;;;;;;;3.87;2.30;;;11.00;99.90;;;;;;5016940;28;20208;-70
2021/12/28 07:37:02;;;;;;;4.33;2.50;;;11.10;99.90;;;;;;5025516;28;20273;-69
2021/12/28 07:39:28;;;;;;;4.20;2.23;;;11.10;99.90;;;;;;5008019;28;20632;-70
2021/12/28 07:41:54;;;;;;;3.30;2.23;;;11.10;99.90;;;;;;5021612;28;20208;-70
2021/12/28 07:44:21;;;;;;;5.03;2.70;;;11.20;99.90;;;;;;5028923;28;20223;-72
2021/12/28 07:46:47;;;;;;;3.60;2.50;;;11.20;99.90;;;;;;5035611;28;20188;-71
2021/12/28 07:49:13;;;;;;;2.90;2.20;;;11.30;99.90;;;;;;5029125;28;20184;-71
2021/12/28 07:51:40;;;;;;;3.03;2.50;;;11.30;99.90;;;;;;5026112;28;20188;-71
2021/12/28 07:54:06;;;;;;;3.27;2.20;;;11.30;99.90;;;;;;5031869;28;20705;-71
2021/12/28 07:56:32;;;;;;;3.80;2.63;;;11.30;99.90;;;;;;5012242;28;20700;-71
2021/12/28 07:59:02;;;;;;;3.67;2.50;;;11.40;99.90;;;;;;5012120;28;20625;-72
2021/12/28 08:01:30;;;;;;;4.67;3.17;;;11.40;99.90;;;;;;5026482;28;20325;-72
2021/12/28 08:03:56;;;;;;;4.13;2.80;;;11.40;99.90;;;;;;5019042;28;20224;-71
2021/12/28 08:06:23;;;;;;;4.77;2.90;;;11.40;99.90;;;;;;5022122;28;20192;-71
2021/12/28 08:08:49;;;;;;;4.60;2.97;;;11.40;99.90;;;;;;5025127;28;20211;-71
2021/12/28 08:11:15;;;;;;;5.30;2.67;;;11.40;99.90;;;;;;5008974;28;20208;-74
2021/12/28 08:13:42;;;;;;;6.00;2.83;;;11.50;99.90;;;;;;5016167;28;20265;-71
2021/12/28 08:16:08;;;;;;;3.13;2.53;;;11.50;99.90;;;;;;5014998;28;20260;-71
2021/12/28 08:18:35;;;;;;;6.17;2.67;;;11.60;99.90;;;;;;5030791;28;20192;-71
2021/12/28 08:21:01;;;;;;;5.10;2.50;;;11.60;99.90;;;;;;5014244;28;20199;-71
2021/12/28 08:23:27;;;;;;;3.77;2.20;;;11.60;99.90;;;;;;5030457;28;20207;-70
2021/12/28 08:25:54;;;;;;;4.83;2.70;;;11.60;99.90;;;;;;5006882;28;20176;-72
2021/12/28 08:28:20;;;;;;;3.80;2.20;;;11.70;99.90;;;;;;5023671;28;20193;-72
2021/12/28 08:30:47;;;;;;;3.97;2.07;;;11.70;99.90;;;;;;4999409;28;20231;-72
2021/12/28 08:33:14;;;;;;;4.60;2.10;;;11.70;99.90;;;;;;5040248;28;20203;-72
2021/12/28 08:35:40;;;;;;;4.37;2.50;;;11.70;99.90;;;;;;4999498;28;20176;-67
2021/12/28 08:38:11;;;;;;;3.13;2.10;;;11.80;99.90;;;;;;5016425;28;20852;-73
2021/12/28 08:40:41;;;;;;;5.23;2.20;;;11.80;99.90;;;;;;5017874;28;20936;-73
2021/12/28 08:43:08;;;;;;;3.20;2.30;;;11.80;99.90;;;;;;5026623;28;20212;-73
2021/12/28 08:45:36;;;;;;;3.47;2.37;;;11.90;99.90;;;;;;5029411;28;20204;-73
2021/12/28 08:48:04;;;;;;;3.13;2.10;;;11.90;99.90;;;;;;5024940;28;20269;-73
2021/12/28 08:50:31;;;;;;;5.00;2.30;;;11.90;99.90;;;;;;5015366;28;20751;-72
2021/12/28 08:52:57;;;;;;;3.63;2.50;;;12.00;99.90;;;;;;5008265;28;20205;-69
2021/12/28 08:55:24;;;;;;;3.40;2.23;;;12.00;99.90;;;;;;5033840;28;20196;-68
2021/12/28 08:57:52;;;;;;;4.93;2.50;;;12.00;99.90;;;;;;5022955;28;20344;-69
2021/12/28 09:00:28;;;;;;;3.90;2.40;;;12.10;99.90;;;;;;5020745;28;20200;-69
2021/12/28 09:02:57;;;;;;;3.83;2.47;;;12.10;99.90;;;;;;5004492;28;20298;-71
2021/12/28 09:05:26;;;;;;;5.07;3.00;;;12.10;99.90;;;;;;5011143;28;20184;-71
2021/12/28 09:07:54;;;;;;;4.07;2.70;;;12.10;99.90;;;;;;4998241;28;20184;-71
2021/12/28 09:10:25;;;;;;;4.30;2.70;;;12.10;99.90;;;;;;5024543;28;20184;-70
2021/12/28 09:12:55;;;;;;;3.80;2.40;;;12.20;99.90;;;;;;5024848;28;20196;-72
2021/12/28 09:15:22;;;;;;;4.43;2.63;;;12.20;99.90;;;;;;5021750;28;20890;-72
2021/12/28 09:17:48;;;;;;;3.27;2.50;;;12.20;99.90;;;;;;5012914;28;20884;-71
2021/12/28 09:20:19;;;;;;;3.97;3.00;;;12.30;99.90;;;;;;5028139;28;20286;-70
2021/12/28 09:22:47;;;;;;;5.23;3.10;;;12.30;99.90;;;;;;5023059;28;20299;-71
2021/12/28 09:25:16;;;;;;;5.37;2.40;;;12.30;99.90;;;;;;5007175;28;20514;-71
2021/12/28 09:27:44;;;;;;;4.00;2.67;;;12.40;99.90;;;;;;5020932;28;20207;-70
2021/12/28 09:30:11;;;;;;;5.53;2.27;;;12.40;99.90;;;;;;5021776;28;20187;-70
2021/12/28 09:32:39;;;;;;;4.63;2.50;;;12.50;99.90;;;;;;5005582;28;20196;-71
2021/12/28 09:35:10;;;;;;;7.23;3.30;;;12.60;99.90;;;;;;5039650;28;20250;-70
2021/12/28 09:37:37;;;;;;;5.73;3.00;;;12.60;99.90;;;;;;5019930;28;20275;-70
2021/12/28 09:40:11;;;;;;;4.17;2.80;;;12.70;99.90;;;;;;5021377;28;20743;-71
2021/12/28 09:42:38;;;;;;;4.33;2.93;;;12.70;99.90;;;;;;5022705;28;20294;-70
2021/12/28 09:45:09;;;;;;;5.70;3.40;;;12.80;99.90;;;;;;5009469;28;20216;-69
2021/12/28 09:47:36;;;;;;;5.43;3.50;;;12.80;99.90;;;;;;5025636;28;20188;-70
2021/12/28 09:50:05;;;;;;;4.27;3.00;;;12.80;99.90;;;;;;5009866;28;20275;-70
2021/12/28 09:52:33;;;;;;;10.13;3.60;;;12.90;99.90;;;;;;5021892;28;20250;-70
2021/12/28 09:54:59;;;;;;;4.13;3.33;;;12.90;99.90;;;;;;5030644;28;20291;-70
2021/12/28 09:57:28;;;;;;;4.23;3.27;;;13.00;99.90;;;;;;5024380;28;20192;-70
2021/12/28 09:59:55;;;;;;;9.70;3.50;;;13.00;99.90;;;;;;5022609;28;20188;-70
2021/12/28 10:02:22;;;;;;;5.87;3.30;;;13.10;99.90;;;;;;5021633;28;20215;-70
2021/12/28 10:05:04;;;;;;;3.17;2.73;;;13.10;99.90;;;;;;5004945;28;20267;-70
2021/12/28 10:07:35;;;;;;;5.03;3.50;;;13.20;99.90;;;;;;5025848;28;20184;-71
2021/12/28 10:10:06;;;;;;;3.73;3.23;;;13.30;99.90;;;;;;5008525;28;20191;-71
2021/12/28 10:12:44;;;;;;;4.73;3.10;;;13.30;99.90;;;;;;5020694;28;20211;-70
2021/12/28 10:15:20;;;;;;;5.30;3.27;;;13.40;99.90;;;;;;5025468;28;20192;-70
2021/12/28 10:17:50;;;;;;;3.87;2.80;;;13.40;99.90;;;;;;5022437;28;20207;-70
2021/12/28 10:20:21;;;;;;;4.93;2.90;;;13.50;99.90;;;;;;5029834;28;20524;-70
2021/12/28 10:23:01;;;;;;;3.93;2.83;;;13.50;99.90;;;;;;5036519;28;20211;-70
2021/12/28 10:25:36;;;;;;;4.83;3.03;;;13.50;99.90;;;;;;5019746;28;20203;-70
2021/12/28 10:28:19;;;;;;;4.43;3.07;;;13.60;99.90;;;;;;5032382;28;20184;-70
2021/12/28 10:30:49;;;;;;;7.20;3.10;;;13.60;99.90;;;;;;4996350;28;20667;-70
2021/12/28 10:33:21;;;;;;;6.00;3.20;;;13.70;99.90;;;;;;5019194;28;20184;-70
2021/12/28 10:36:16;;;;;;;6.03;3.13;;;13.70;99.90;;;;;;5019044;28;20208;-70
2021/12/28 10:38:49;;;;;;;3.97;2.87;;;13.70;99.90;;;;;;5025170;28;20270;-71
2021/12/28 10:41:20;;;;;;;3.77;3.03;;;13.70;99.90;;;;;;5021860;28;20262;-70
2021/12/28 10:43:51;;;;;;;6.90;3.20;;;13.70;99.90;;;;;;5021432;28;20457;-71
2021/12/28 10:46:26;;;;;;;5.10;3.00;;;13.70;99.90;;;;;;5037465;28;20215;-70
2021/12/28 10:49:00;;;;;;;6.03;2.97;;;13.70;99.90;;;;;;5006166;28;20349;-71
2021/12/28 10:51:34;;;;;;;4.10;2.80;;;13.70;99.90;;;;;;5023298;28;20280;-70
2021/12/28 10:56:46;;;;;;;6.00;3.87;;;13.70;99.90;;;;;;5024308;28;20207;-70
2021/12/28 10:59:14;;;;;;;4.40;3.23;;;13.80;99.90;;;;;;5014801;28;20272;-70
2021/12/28 11:01:42;;;;;;;6.60;3.83;;;13.80;99.90;;;;;;5016563;28;20530;-70
2021/12/28 11:04:14;;;;;;;6.90;3.67;;;13.80;99.90;;;;;;5013665;28;20352;-70
2021/12/28 11:06:46;;;;;;;6.00;3.60;;;13.80;99.90;;;;;;5022198;28;20194;-70
2021/12/28 11:09:21;;;;;;;6.17;3.30;;;13.80;99.90;;;;;;5004184;28;20192;-70
2021/12/28 11:11:51;;;;;;;5.73;3.67;;;13.80;99.90;;;;;;5016509;28;20580;-70
2021/12/28 11:14:22;;;;;;;7.03;4.03;;;13.90;99.90;;;;;;5013421;28;20224;-70
2021/12/28 11:17:02;;;;;;;5.00;3.37;;;13.80;99.90;;;;;;5021176;28;20977;-70
2021/12/28 11:19:35;;;;;;;4.83;3.53;;;13.80;99.90;;;;;;4999750;28;20192;-70
2021/12/28 11:22:08;;;;;;;3.80;3.40;;;13.80;99.90;;;;;;5046350;28;20188;-71
2021/12/28 11:24:40;;;;;;;3.57;2.90;;;13.80;99.90;;;;;;5025822;28;20270;-70
2021/12/28 11:27:10;;;;;;;5.20;3.30;;;13.70;99.90;;;;;;5028549;28;20271;-71
2021/12/28 11:29:39;;;;;;;5.83;3.13;;;13.70;99.90;;;;;;5038894;28;20519;-70
2021/12/28 11:32:17;;;;;;;3.90;3.03;;;13.60;99.90;;;;;;5010166;28;20204;-71
2021/12/28 11:34:45;;;;;;;3.37;2.50;;;13.60;99.90;;;;;;5009878;28;20211;-71
2021/12/28 11:37:18;;;;;;;4.00;2.57;;;13.50;99.90;;;;;;5032564;28;20278;-71
2021/12/28 11:39:50;;;;;;;7.27;3.20;;;13.50;99.90;;;;;;5022861;28;20192;-71
2021/12/28 11:42:19;;;;;;;6.40;2.20;;;13.60;99.90;;;;;;5025888;28;20204;-71
2021/12/28 11:44:47;;;;;;;5.63;2.60;;;13.50;99.90;;;;;;5028237;28;20283;-71
2021/12/28 11:47:16;;;;;;;2.97;2.33;;;13.50;99.90;;;;;;5007727;28;20235;-71
2021/12/28 11:49:44;;;;;;;4.10;2.20;;;13.50;99.90;;;;;;5021406;28;20180;-71
2021/12/28 11:52:17;;;;;;;3.70;2.60;;;13.50;99.90;;;;;;5028310;28;20949;-71
2021/12/28 11:54:50;;;;;;;3.40;2.57;;;13.50;99.90;;;;;;5024715;28;20721;-70
2021/12/28 11:57:20;;;;;;;2.83;2.40;;;13.50;99.90;;;;;;5028487;28;20196;-70
2021/12/28 12:00:05;;;;;;;5.07;2.50;;;13.40;99.90;;;;;;5026253;28;20921;-71
2021/12/28 12:02:47;;;;;;;4.97;2.63;;;13.40;99.90;;;;;;5026838;28;20216;-70
2021/12/28 12:05:28;;;;;;;3.33;2.60;;;13.40;99.90;;;;;;5020269;28;20287;-70
2021/12/28 12:08:16;;;;;;;5.70;2.63;;;13.40;99.90;;;;;;5027174;28;20190;-70
2021/12/28 12:10:49;;;;;;;5.77;2.63;;;13.40;99.90;;;;;;5007852;28;20184;-71
2021/12/28 12:13:28;;;;;;;4.27;3.27;;;13.40;99.90;;;;;;5025605;28;20723;-71
2021/12/28 12:16:15;;;;;;;6.60;3.50;;;13.40;99.90;;;;;;5029594;28;20275;-70
2021/12/28 12:18:50;;;;;;;6.67;2.97;;;13.40;99.90;;;;;;5027309;28;20196;-70
2021/12/28 12:21:20;;;;;;;9.90;3.33;;;13.40;99.90;;;;;;5023229;28;20196;-70
2021/12/28 12:23:53;;;;;;;6.00;3.97;;;13.40;99.90;;;;;;5032281;28;20216;-71
2021/12/28 12:26:37;;;;;;;5.20;4.10;;;13.40;99.90;;;;;;5013271;28;20528;-70
2021/12/28 12:29:20;;;;;;;8.37;4.37;;;13.40;99.90;;;;;;5028283;28;20234;-71
2021/12/28 12:31:47;;;;;;;8.67;4.47;;;13.40;99.90;;;;;;5026660;28;20287;-70
2021/12/28 12:34:34;;;;;;;5.57;4.23;;;13.40;99.90;;;;;;5028066;28;20288;-70
2021/12/28 12:37:00;;;;;;;5.00;4.30;;;13.40;99.90;;;;;;5009641;28;20199;-70
2021/12/28 12:39:38;;;;;;;6.57;4.30;;;13.40;99.90;;;;;;5018604;28;20199;-70
2021/12/28 12:42:12;;;;;;;9.37;5.77;;;13.40;99.90;;;;;;5029465;28;20601;-70
2021/12/28 12:44:40;;;;;;;7.20;4.80;;;13.40;99.90;;;;;;5034330;28;20223;-71
2021/12/28 12:47:10;;;;;;;6.10;4.60;;;13.40;99.90;;;;;;5027570;28;20211;-70
2021/12/28 12:49:37;;;;;;;7.67;5.57;;;13.40;99.90;;;;;;5026391;28;20226;-70
2021/12/28 12:52:17;;;;;;;7.53;5.17;;;13.30;99.90;;;;;;5025960;28;20198;-70
2021/12/28 12:54:44;;;;;;;5.57;4.83;;;13.30;99.90;;;;;;5028726;28;20192;-70
2021/12/28 12:57:18;;;;;;;7.30;5.10;;;13.30;99.90;;;;;;5026426;28;20206;-70
2021/12/28 12:59:53;;;;;;;9.27;6.00;;;13.30;99.90;;;;;;5022893;28;20188;-71
2021/12/28 13:02:39;;;;;;;10.30;5.83;;;13.30;99.90;;;;;;5006537;28;20249;-71
2021/12/28 13:05:22;;;;;;;8.63;5.67;;;13.30;99.90;;;;;;5024012;28;20235;-70